Impacts TAF Board
For situational awareness. Not to be used for flight planning purposes.
IDs:

KSRQ - Sarasota-Bradenton I, FL, US

Issued at 1740 UTC 21 Sep 2021
Updated at 2118 UTC 21 Sep 2021
Potential Impact None Slight Moderate High
Time2053Z 21/22Z 21/23Z 22/00Z 22/01Z 22/02Z 22/03Z 22/04Z 22/05Z 22/06Z 22/07Z 22/08Z 22/09Z 22/10Z>>
Type OBS PRVL PRVL PRVL PRVL PRVL PRVL PRVL PRVL PRVL PRVL PRVL PRVL PRVL
VIS 10 >6 >6 >6 >6 >6 >6 >6 >6 >6 >6 >6 >6 >6
CIG -- 250 250 120 120 120 250 250 250 250 250 250 250 250
Cover CLR BKN BKN BKN BKN BKN BKN BKN BKN BKN BKN BKN BKN BKN
FltCat VFR VFR VFR VFR VFR VFR VFR VFR VFR VFR VFR VFR VFR VFR
WX -- VCTS VCTS VCSH VCSH VCSH -- -- -- -- -- -- -- --
WDir 310 280 280 80 80 80 VRB VRB VRB VRB VRB VRB VRB VRB
WSpd 7 9 9 5 5 5 4 4 4 4 4 4 4 4
WGst -- -- -- -- -- -- -- -- -- -- -- -- -- --
Raw TAF
KSRQ 211740Z 2118/2218 28009KT P6SM VCTS SCT030CB SCT100 BKN250
  FM220000 08005KT P6SM VCSH SCT030 BKN120
  FM220300 VRB04KT P6SM SCT020 SCT120 BKN250
  FM221200 VRB03KT P6SM VCSH SCT020 SCT120 BKN250
  FM221500 25006KT P6SM VCSH SCT025 SCT120 BKN250


Raw METAR
KSRQ 212053Z 31007KT 10SM CLR 31/23 A2997 RMK AO2 LTG DSNT NE-SE SLP148 T03110233 56014
KSRQ 211953Z 29012KT 10SM CLR 31/24 A2997 RMK AO2 LTG DSNT E SLP149 T03110239
KSRQ 211853Z 28011KT 10SM CLR 31/23 A2999 RMK AO2 SLP155 T03110233

METAR Board
Radar Display
Forecast Discussion
For situational awareness. Not to be used for flight planning purposes.